Time;durP1;ratioP1;P1;durP2;ratioP2;P2;SDS_P1;SDS_P2;PMS_P1;PMS_P2;Temp;Humidity;BMP_temperature;BMP_pressure;BME280_temperature;BME280_humidity;BME280_pressure;Samples;Min_cycle;Max_cycle;Signal;HPM_P1;HPM_P2
2022/05/23 00:01:51;;;;;;;3.85;2.80;;;16.10;91.30;;;;;;4996358;28;91677;-73
2022/05/23 00:04:18;;;;;;;5.15;3.13;;;16.10;91.40;;;;;;4994241;28;93221;-72
2022/05/23 00:06:46;;;;;;;3.03;2.67;;;16.10;91.60;;;;;;4995710;28;92915;-72
2022/05/23 00:09:14;;;;;;;5.05;3.63;;;16.10;91.50;;;;;;4994314;28;94772;-72
2022/05/23 00:11:42;;;;;;;4.18;2.45;;;16.00;91.60;;;;;;4994382;28;92603;-73
2022/05/23 00:14:09;;;;;;;5.18;3.28;;;16.00;91.80;;;;;;4993852;28;95641;-72
2022/05/23 00:16:40;;;;;;;3.35;2.75;;;16.00;91.80;;;;;;4994167;28;93151;-72
2022/05/23 00:19:11;;;;;;;3.50;2.70;;;16.00;91.90;;;;;;4995174;28;92462;-73
2022/05/23 00:21:40;;;;;;;4.40;3.35;;;16.00;91.90;;;;;;4995657;28;92486;-72
2022/05/23 00:24:08;;;;;;;6.53;2.78;;;15.90;92.00;;;;;;4993825;28;95746;-72
2022/05/23 00:26:36;;;;;;;5.82;3.00;;;15.90;92.00;;;;;;4994192;28;92593;-73
2022/05/23 00:29:03;;;;;;;5.55;3.38;;;15.80;92.30;;;;;;4995554;28;92332;-72
2022/05/23 00:31:31;;;;;;;3.92;2.78;;;15.90;92.40;;;;;;4960960;28;92536;-72
2022/05/23 00:36:44;;;;;;;2.97;2.70;;;15.70;92.40;;;;;;4993777;28;97858;-72
2022/05/23 00:39:11;;;;;;;3.95;2.75;;;15.70;92.40;;;;;;4993670;28;92932;-72
2022/05/23 00:44:33;;;;;;;5.85;3.60;;;15.60;92.60;;;;;;4998665;28;93214;-72
2022/05/23 00:47:17;;;;;;;4.45;4.05;;;15.60;92.60;;;;;;4997312;28;95623;-72
2022/05/23 00:49:44;;;;;;;3.40;3.05;;;15.60;92.80;;;;;;4997233;28;92562;-72
2022/05/23 00:52:28;;;;;;;4.10;3.40;;;15.50;92.90;;;;;;4997487;28;92535;-72
2022/05/23 00:55:01;;;;;;;3.88;3.10;;;15.50;93.00;;;;;;4997053;28;93843;-72
2022/05/23 00:57:34;;;;;;;6.85;3.65;;;15.40;93.10;;;;;;4998413;28;93060;-73
2022/05/23 01:00:05;;;;;;;5.88;4.47;;;15.40;93.00;;;;;;4995874;28;94884;-73
2022/05/23 01:02:32;;;;;;;5.63;2.85;;;15.30;93.10;;;;;;4996889;28;92560;-73
2022/05/23 01:04:59;;;;;;;5.22;3.95;;;15.30;93.10;;;;;;4998312;28;93283;-72
2022/05/23 01:07:26;;;;;;;4.88;3.60;;;15.30;93.20;;;;;;4996545;28;95393;-72
2022/05/23 01:09:53;;;;;;;5.07;4.07;;;15.30;93.60;;;;;;4997031;28;92417;-72
2022/05/23 01:12:21;;;;;;;4.40;3.97;;;15.30;93.40;;;;;;5013350;28;92474;-72
2022/05/23 01:14:53;;;;;;;5.15;4.50;;;15.20;93.40;;;;;;4980069;28;95755;-72
2022/05/23 01:17:22;;;;;;;4.32;3.92;;;15.30;93.50;;;;;;4998378;28;92712;-72
2022/05/23 01:19:50;;;;;;;6.07;4.35;;;15.20;93.50;;;;;;4996495;28;92564;-72
2022/05/23 01:22:28;;;;;;;4.88;3.70;;;15.20;93.80;;;;;;4996895;28;92518;-72
2022/05/23 01:25:01;;;;;;;4.50;4.10;;;15.20;93.40;;;;;;4995065;28;98310;-72
2022/05/23 01:27:30;;;;;;;5.00;3.90;;;15.10;93.50;;;;;;5013092;28;97475;-73
2022/05/23 01:29:58;;;;;;;4.13;3.70;;;15.10;93.60;;;;;;4980351;28;92572;-72
2022/05/23 01:32:26;;;;;;;4.43;3.75;;;15.10;93.50;;;;;;5013166;28;92534;-72
2022/05/23 01:34:56;;;;;;;5.97;4.63;;;15.10;93.50;;;;;;4996784;28;95041;-72
2022/05/23 01:37:24;;;;;;;4.50;4.10;;;15.10;93.50;;;;;;4996155;28;95575;-72
2022/05/23 01:40:00;;;;;;;4.40;3.88;;;15.00;93.50;;;;;;4981400;28;93096;-72
2022/05/23 01:42:56;;;;;;;4.63;4.22;;;15.00;93.70;;;;;;4989497;28;91975;-72
2022/05/23 01:45:26;;;;;;;5.18;4.63;;;15.00;93.90;;;;;;4996038;28;94823;-73
2022/05/23 01:47:56;;;;;;;5.80;5.00;;;15.00;94.10;;;;;;4996279;28;93946;-72
2022/05/23 01:50:24;;;;;;;4.60;4.20;;;15.00;93.80;;;;;;4995133;28;95022;-72
2022/05/23 01:52:55;;;;;;;5.45;4.38;;;15.00;93.70;;;;;;4995582;28;92572;-72
2022/05/23 01:55:29;;;;;;;4.75;4.20;;;15.00;93.80;;;;;;4995840;28;95677;-72
2022/05/23 02:01:12;;;;;;;5.55;4.68;;;15.00;93.80;;;;;;4996922;28;93692;-72
2022/05/23 02:01:14;;;;;;;4.82;4.43;;;14.90;93.70;;;;;;4996305;28;92419;-72
2022/05/23 02:03:49;;;;;;;4.70;4.30;;;14.90;93.80;;;;;;4997311;28;92484;-72
2022/05/23 02:06:16;;;;;;;5.05;4.32;;;14.90;93.80;;;;;;4996023;28;95788;-72
2022/05/23 02:08:47;;;;;;;4.82;4.32;;;14.90;93.90;;;;;;4980103;28;95256;-72
2022/05/23 02:11:15;;;;;;;4.60;4.20;;;14.90;93.70;;;;;;4996180;28;92490;-72
2022/05/23 02:13:44;;;;;;;5.22;4.35;;;15.00;93.70;;;;;;4978996;28;92572;-72
2022/05/23 02:16:23;;;;;;;5.47;4.70;;;15.00;93.70;;;;;;4995953;28;96647;-73
2022/05/23 02:18:59;;;;;;;5.40;4.75;;;15.00;93.70;;;;;;4995782;28;97127;-72
2022/05/23 02:21:26;;;;;;;5.88;4.45;;;15.00;93.60;;;;;;4995494;28;92469;-72
2022/05/23 02:23:54;;;;;;;4.72;4.28;;;15.00;93.60;;;;;;4995720;28;92832;-72
2022/05/23 02:26:21;;;;;;;6.88;5.28;;;15.00;93.60;;;;;;4995267;28;95944;-72
2022/05/23 02:29:00;;;;;;;4.88;4.00;;;15.00;93.70;;;;;;4980842;28;95097;-72
2022/05/23 02:31:30;;;;;;;5.30;4.85;;;15.00;93.50;;;;;;4979009;28;92549;-72
2022/05/23 02:34:01;;;;;;;5.05;4.63;;;15.00;93.70;;;;;;4996186;28;92109;-72
2022/05/23 02:36:34;;;;;;;4.63;4.30;;;15.10;93.90;;;;;;4995381;28;95661;-73
2022/05/23 02:39:03;;;;;;;6.10;4.05;;;15.00;93.70;;;;;;4995368;28;95357;-72
2022/05/23 02:41:32;;;;;;;6.25;5.07;;;15.00;93.70;;;;;;4994019;28;94926;-72
2022/05/23 02:44:00;;;;;;;4.90;4.40;;;15.10;93.70;;;;;;4995824;28;92611;-72
2022/05/23 02:46:28;;;;;;;5.28;4.78;;;15.10;93.90;;;;;;4978604;28;94338;-72
2022/05/23 02:49:11;;;;;;;4.57;4.13;;;15.10;93.90;;;;;;4966477;28;95965;-72
2022/05/23 02:51:41;;;;;;;4.68;4.03;;;15.10;93.80;;;;;;4979225;28;92530;-72
2022/05/23 02:54:11;;;;;;;6.07;4.57;;;15.10;93.90;;;;;;4962773;28;92498;-72
2022/05/23 02:56:39;;;;;;;5.13;4.63;;;15.10;93.90;;;;;;4995057;28;95536;-72
2022/05/23 02:59:07;;;;;;;5.32;4.88;;;15.10;93.70;;;;;;4979328;28;94966;-72
2022/05/23 03:03:01;;;;;;;5.20;4.30;;;15.00;93.70;;;;;;4995088;28;92461;-72
2022/05/23 03:04:29;;;;;;;4.72;4.32;;;15.00;93.80;;;;;;5011468;28;92452;-72
2022/05/23 03:06:57;;;;;;;5.38;3.95;;;15.00;93.90;;;;;;5010255;28;98069;-72
2022/05/23 03:09:24;;;;;;;6.05;4.30;;;14.90;94.00;;;;;;4962132;28;97786;-72
2022/05/23 03:11:51;;;;;;;7.63;4.85;;;15.00;94.40;;;;;;4995472;28;92582;-72
2022/05/23 03:14:26;;;;;;;6.13;4.18;;;15.00;94.30;;;;;;4995192;28;92613;-72
2022/05/23 03:17:01;;;;;;;5.15;4.65;;;15.00;94.10;;;;;;4994880;28;95427;-72
2022/05/23 03:19:28;;;;;;;5.40;4.90;;;15.00;94.00;;;;;;4994542;28;95261;-72
2022/05/23 03:27:30;;;;;;;5.32;4.88;;;15.00;94.00;;;;;;4980660;28;95759;-72
2022/05/23 03:30:10;;;;;;;4.78;4.38;;;15.10;94.00;;;;;;4994571;28;94039;-72
2022/05/23 03:32:46;;;;;;;5.57;4.50;;;15.10;93.90;;;;;;5010299;28;94852;-73
2022/05/23 03:35:13;;;;;;;4.78;4.30;;;15.10;93.90;;;;;;4994806;28;92486;-72
2022/05/23 03:37:40;;;;;;;5.47;4.82;;;15.10;93.80;;;;;;4994577;28;93257;-73
2022/05/23 03:40:08;;;;;;;6.00;5.47;;;15.20;93.80;;;;;;4978495;28;92913;-72
2022/05/23 03:42:41;;;;;;;6.10;4.63;;;15.20;93.70;;;;;;4994560;28;93148;-72
2022/05/23 03:45:08;;;;;;;4.82;3.97;;;15.20;93.70;;;;;;4994511;28;92442;-72
2022/05/23 03:47:42;;;;;;;6.15;5.22;;;15.20;93.70;;;;;;5011033;28;95458;-72
2022/05/23 03:50:14;;;;;;;5.43;4.30;;;15.30;93.70;;;;;;4995053;28;92798;-73
2022/05/23 03:52:42;;;;;;;5.68;5.07;;;15.30;93.60;;;;;;4994396;28;92654;-72
2022/05/23 03:55:12;;;;;;;5.07;4.10;;;15.30;93.60;;;;;;4993838;28;92675;-72
2022/05/23 03:57:42;;;;;;;5.00;4.57;;;15.40;93.60;;;;;;5009403;28;97885;-73
2022/05/23 04:00:09;;;;;;;6.45;5.85;;;15.40;93.60;;;;;;4995588;28;95317;-73
2022/05/23 04:02:42;;;;;;;5.43;4.85;;;15.40;93.60;;;;;;4994450;28;92813;-73
2022/05/23 04:05:14;;;;;;;4.65;4.25;;;15.40;93.40;;;;;;4994224;28;92481;-72
2022/05/23 04:08:04;;;;;;;5.78;3.97;;;15.50;93.30;;;;;;4994246;28;94872;-72
2022/05/23 04:10:38;;;;;;;;;;;15.40;93.30;;;;;;5011179;28;94909;-73
2022/05/23 04:13:06;;;;;;;6.25;4.13;;;15.40;93.30;;;;;;4995294;28;92463;-72
2022/05/23 04:15:34;;;;;;;5.15;4.57;;;15.40;93.40;;;;;;5010746;28;91759;-72
2022/05/23 04:18:01;;;;;;;6.30;4.35;;;15.40;93.40;;;;;;4977691;28;96235;-73
2022/05/23 04:20:28;;;;;;;6.03;5.03;;;15.50;93.60;;;;;;4993634;28;95232;-73
2022/05/23 04:23:08;;;;;;;5.00;4.65;;;15.50;93.40;;;;;;4977677;28;94889;-72
2022/05/23 04:25:41;;;;;;;4.60;4.30;;;15.50;93.50;;;;;;4978455;28;92568;-73
2022/05/23 04:28:10;;;;;;;4.97;4.18;;;15.60;93.30;;;;;;4995254;28;93140;-73
2022/05/23 04:30:42;;;;;;;5.30;4.82;;;15.60;93.30;;;;;;4977667;28;95288;-73
2022/05/23 04:35:56;;;;;;;6.88;4.72;;;15.70;93.30;;;;;;4993967;28;92480;-72
2022/05/23 04:38:30;;;;;;;6.05;5.45;;;15.60;93.40;;;;;;4978421;28;95046;-72
2022/05/23 04:40:59;;;;;;;5.88;5.38;;;15.60;93.50;;;;;;5010591;28;94909;-72
2022/05/23 04:43:30;;;;;;;6.47;5.60;;;15.70;93.40;;;;;;4993775;28;92505;-72
2022/05/23 04:45:58;;;;;;;4.90;4.30;;;15.70;93.50;;;;;;4993768;28;92493;-72
2022/05/23 04:51:21;;;;;;;6.40;5.03;;;15.70;93.40;;;;;;4980263;28;97668;-72
2022/05/23 04:53:53;;;;;;;6.22;5.63;;;15.60;93.40;;;;;;4993321;28;92517;-73
2022/05/23 04:56:22;;;;;;;8.13;5.70;;;15.60;93.60;;;;;;4993991;28;92942;-73
2022/05/23 04:58:55;;;;;;;6.10;5.13;;;15.70;93.70;;;;;;4993257;28;94239;-73
2022/05/23 05:01:22;;;;;;;6.18;5.00;;;15.70;93.70;;;;;;5010022;28;95824;-72
2022/05/23 05:03:53;;;;;;;5.90;5.30;;;15.70;93.60;;;;;;4993620;28;92808;-72
2022/05/23 05:06:22;;;;;;;7.55;4.75;;;15.80;93.60;;;;;;4993597;28;91660;-73
2022/05/23 05:08:50;;;;;;;5.68;5.13;;;15.90;93.40;;;;;;4993219;28;95457;-73
2022/05/23 05:11:17;;;;;;;5.60;5.10;;;16.10;93.30;;;;;;4994854;28;92705;-72
2022/05/23 05:14:05;;;;;;;6.18;4.75;;;16.20;93.10;;;;;;4993417;28;94724;-73
2022/05/23 05:16:36;;;;;;;7.07;4.90;;;16.40;93.10;;;;;;4993405;28;92539;-73
2022/05/23 05:19:04;;;;;;;7.10;5.30;;;16.60;92.60;;;;;;4993018;28;95564;-73
2022/05/23 05:21:49;;;;;;;8.95;5.07;;;16.70;92.50;;;;;;4992779;28;92473;-73
2022/05/23 05:24:35;;;;;;;6.95;6.25;;;16.90;92.50;;;;;;4994464;28;92441;-72
2022/05/23 05:27:24;;;;;;;6.85;5.32;;;17.00;92.00;;;;;;4993340;28;92657;-72
2022/05/23 05:29:52;;;;;;;5.95;5.38;;;17.10;92.00;;;;;;4979818;28;95686;-73
2022/05/23 05:32:32;;;;;;;7.00;5.28;;;17.20;91.80;;;;;;4980278;28;95499;-73
2022/05/23 05:35:32;;;;;;;6.53;5.72;;;17.30;91.90;;;;;;4996706;28;92537;-73
2022/05/23 05:38:28;;;;;;;6.40;4.72;;;17.40;91.50;;;;;;4992561;28;92385;-73
2022/05/23 05:41:03;;;;;;;7.30;6.68;;;17.40;91.80;;;;;;4972538;28;98288;-72
2022/05/23 05:43:36;;;;;;;7.20;6.50;;;17.50;91.20;;;;;;4996211;28;98101;-73
2022/05/23 05:46:15;;;;;;;7.63;5.00;;;17.60;91.10;;;;;;4996454;28;92377;-73
2022/05/23 05:49:00;;;;;;;5.85;4.72;;;17.80;90.80;;;;;;5013165;28;93014;-72
2022/05/23 05:51:28;;;;;;;7.28;4.78;;;17.90;90.60;;;;;;4995972;28;95666;-73
2022/05/23 05:54:24;;;;;;;6.35;5.75;;;17.90;90.40;;;;;;4991570;28;93694;-73
2022/05/23 05:57:01;;;;;;;8.82;5.70;;;18.00;90.70;;;;;;4996250;28;93056;-73
2022/05/23 05:59:30;;;;;;;5.53;5.10;;;18.00;90.70;;;;;;4996578;28;91838;-73
2022/05/23 06:01:58;;;;;;;6.80;6.22;;;17.90;90.30;;;;;;4979361;28;95292;-73
2022/05/23 06:04:28;;;;;;;5.80;5.15;;;18.00;90.50;;;;;;4995812;28;94846;-73
2022/05/23 06:13:11;;;;;;;6.65;5.40;;;17.90;90.60;;;;;;4996663;28;95169;-73
2022/05/23 06:15:58;;;;;;;8.80;5.35;;;18.00;91.10;;;;;;4995554;28;93689;-73
2022/05/23 06:18:33;;;;;;;9.57;6.40;;;18.10;91.00;;;;;;4980193;28;93616;-73
2022/05/23 06:21:01;;;;;;;6.95;5.38;;;18.10;90.70;;;;;;4978235;28;92485;-73
2022/05/23 06:23:28;;;;;;;6.60;5.13;;;18.20;90.70;;;;;;4978940;28;95953;-73
2022/05/23 06:26:14;;;;;;;7.63;5.97;;;18.30;90.60;;;;;;4995939;28;94048;-73
2022/05/23 06:29:00;;;;;;;5.55;5.00;;;18.40;90.50;;;;;;4996040;28;92966;-73
2022/05/23 06:31:27;;;;;;;10.05;6.38;;;18.60;90.50;;;;;;5012346;28;92487;-73
2022/05/23 06:33:54;;;;;;;6.10;5.15;;;18.80;90.00;;;;;;4993915;28;98197;-73
2022/05/23 06:36:24;;;;;;;9.55;6.53;;;19.00;89.30;;;;;;4995431;28;97294;-73
2022/05/23 06:38:51;;;;;;;6.90;5.40;;;19.10;88.70;;;;;;4978391;28;92552;-73
2022/05/23 06:41:37;;;;;;;7.78;5.32;;;19.30;88.40;;;;;;4996302;28;92507;-73
2022/05/23 06:44:16;;;;;;;8.75;6.93;;;19.50;88.00;;;;;;4980068;28;95474;-73
2022/05/23 06:47:02;;;;;;;7.32;5.95;;;19.60;87.70;;;;;;4995586;28;92472;-73
2022/05/23 06:49:53;;;;;;;8.85;6.40;;;19.70;87.20;;;;;;4992719;28;92467;-73
2022/05/23 06:52:23;;;;;;;7.25;6.53;;;19.70;87.30;;;;;;4995693;28;91682;-73
2022/05/23 06:55:13;;;;;;;8.68;5.85;;;19.90;87.10;;;;;;4995248;28;93998;-73
2022/05/23 06:57:46;;;;;;;7.72;5.80;;;20.00;87.10;;;;;;4979444;28;94846;-73
2022/05/23 07:00:14;;;;;;;9.30;6.50;;;20.10;86.60;;;;;;4977395;28;95409;-73
2022/05/23 07:02:46;;;;;;;9.63;6.80;;;20.20;86.80;;;;;;4995063;28;93418;-73
2022/05/23 07:14:00;;;;;;;6.68;5.78;;;20.60;85.80;;;;;;4994607;28;93527;-73
2022/05/23 07:16:30;;;;;;;9.15;5.25;;;20.70;85.50;;;;;;4994750;28;95697;-73
2022/05/23 07:18:57;;;;;;;9.65;7.25;;;20.90;85.00;;;;;;5012021;28;95479;-73
2022/05/23 07:21:35;;;;;;;6.72;5.50;;;21.10;84.90;;;;;;4995014;28;92481;-73
2022/05/23 07:24:09;;;;;;;6.63;5.50;;;21.20;84.20;;;;;;4979137;28;92523;-73
2022/05/23 07:26:50;;;;;;;8.23;7.20;;;21.30;83.80;;;;;;4993519;28;98350;-73
2022/05/23 07:29:19;;;;;;;6.60;5.30;;;21.40;83.40;;;;;;5010812;28;97922;-73
2022/05/23 07:31:49;;;;;;;7.35;5.97;;;21.60;83.60;;;;;;5011435;28;92539;-73
2022/05/23 07:34:18;;;;;;;7.05;6.22;;;21.70;82.50;;;;;;5011041;28;92538;-73
2022/05/23 07:36:46;;;;;;;8.15;5.60;;;22.00;82.60;;;;;;4994532;28;95708;-73
2022/05/23 07:39:15;;;;;;;7.43;6.60;;;22.20;82.20;;;;;;4994066;28;95566;-73
2022/05/23 07:41:46;;;;;;;7.15;6.53;;;22.40;81.40;;;;;;4994687;28;92464;-73
2022/05/23 07:44:16;;;;;;;9.50;6.38;;;22.50;80.40;;;;;;4978802;28;91859;-73
2022/05/23 07:46:46;;;;;;;9.30;5.32;;;22.60;79.60;;;;;;4994059;28;94256;-73
2022/05/23 07:49:30;;;;;;;7.00;5.45;;;22.70;78.60;;;;;;4994049;28;94382;-73
2022/05/23 07:52:15;;;;;;;7.10;5.80;;;22.70;78.10;;;;;;4990043;28;95202;-73
2022/05/23 08:00:34;;;;;;;6.65;5.50;;;23.30;78.80;;;;;;4996708;28;95227;-73
2022/05/23 08:03:17;;;;;;;5.80;5.20;;;24.00;77.50;;;;;;4979630;28;92401;-73
2022/05/23 08:06:09;;;;;;;6.10;5.13;;;24.70;74.60;;;;;;4975096;28;92484;-73
2022/05/23 08:08:36;;;;;;;6.60;6.03;;;25.50;70.40;;;;;;4977438;28;95665;-73
2022/05/23 08:11:08;;;;;;;6.15;5.53;;;26.10;69.20;;;;;;4978136;28;93888;-73
2022/05/23 08:13:47;;;;;;;6.18;5.57;;;26.50;66.60;;;;;;4995370;28;92606;-73
2022/05/23 08:16:15;;;;;;;5.30;3.60;;;27.10;64.90;;;;;;4994033;28;92453;-74
2022/05/23 08:18:42;;;;;;;8.55;4.45;;;27.40;63.30;;;;;;4992541;28;98347;-74
2022/05/23 08:21:09;;;;;;;6.43;5.82;;;27.80;62.40;;;;;;4993623;28;97761;-74
2022/05/23 08:23:41;;;;;;;6.10;4.30;;;28.00;60.70;;;;;;4994352;28;92713;-73
2022/05/23 08:26:30;;;;;;;5.00;4.45;;;28.60;60.20;;;;;;5010243;28;92739;-74
2022/05/23 08:28:57;;;;;;;5.93;5.25;;;29.30;58.20;;;;;;4977408;28;95627;-74
2022/05/23 08:31:31;;;;;;;7.00;5.10;;;29.90;56.90;;;;;;5010247;28;94928;-74
2022/05/23 08:34:09;;;;;;;4.40;4.00;;;30.20;54.80;;;;;;4993939;28;92524;-73
2022/05/23 08:36:36;;;;;;;6.53;4.03;;;30.40;52.30;;;;;;5010878;28;91790;-74
2022/05/23 08:39:04;;;;;;;5.75;4.38;;;30.60;51.80;;;;;;4993703;28;95860;-74
2022/05/23 08:41:54;;;;;;;5.35;4.18;;;30.60;51.80;;;;;;4988790;28;94180;-74
2022/05/23 08:44:58;;;;;;;5.25;4.78;;;30.50;51.80;;;;;;5009224;28;95297;-74
2022/05/23 08:47:47;;;;;;;6.00;3.65;;;30.30;51.10;;;;;;4993341;28;92916;-74
2022/05/23 08:50:25;;;;;;;6.15;4.43;;;30.70;51.30;;;;;;4993263;28;95161;-74
2022/05/23 08:53:02;;;;;;;5.82;5.35;;;30.60;50.70;;;;;;4995031;28;92896;-74
2022/05/23 08:55:46;;;;;;;4.88;4.32;;;30.70;49.80;;;;;;4992902;28;92542;-74
2022/05/23 08:58:32;;;;;;;5.55;4.20;;;30.60;50.20;;;;;;4992952;28;92365;-74
2022/05/23 09:01:10;;;;;;;;;;;30.50;50.70;;;;;;4995506;28;93256;-74
2022/05/23 09:04:02;;;;;;;4.82;4.32;;;29.50;50.30;;;;;;4999618;28;92585;-74
2022/05/23 09:06:37;;;;;;;5.72;4.13;;;29.70;52.10;;;;;;4997277;28;92550;-74
2022/05/23 09:09:07;;;;;;;5.68;4.07;;;29.30;52.60;;;;;;4998660;28;92408;-73
2022/05/23 09:11:38;;;;;;;6.90;3.90;;;28.70;53.40;;;;;;4978896;28;98076;-74
2022/05/23 09:14:07;;;;;;;5.15;3.88;;;28.40;53.90;;;;;;4996649;28;96591;-74
2022/05/23 09:16:42;;;;;;;4.45;4.05;;;27.90;55.10;;;;;;4996589;28;92728;-74
2022/05/23 09:19:26;;;;;;;7.68;4.38;;;27.50;56.20;;;;;;4998572;28;92431;-74
2022/05/23 09:22:15;;;;;;;5.25;4.35;;;27.20;57.50;;;;;;4996891;28;93227;-74
2022/05/23 09:24:46;;;;;;;4.72;4.20;;;26.70;58.00;;;;;;4996648;28;95663;-73
2022/05/23 09:27:35;;;;;;;7.32;4.57;;;26.40;59.20;;;;;;4998108;28;92516;-73
2022/05/23 09:30:14;;;;;;;6.68;5.18;;;26.20;59.60;;;;;;4998508;28;91661;-73
2022/05/23 09:32:47;;;;;;;5.38;3.92;;;26.10;60.50;;;;;;4998287;28;92503;-73
2022/05/23 09:35:15;;;;;;;5.57;3.90;;;25.90;60.40;;;;;;4996103;28;93067;-73
2022/05/23 09:47:56;;;;;;;5.63;3.80;;;25.50;62.20;;;;;;4997703;28;93018;-73
2022/05/23 09:50:52;;;;;;;4.70;4.30;;;25.60;62.90;;;;;;4996477;28;92553;-73
2022/05/23 09:53:33;;;;;;;4.70;4.13;;;25.70;61.40;;;;;;4997882;28;92433;-73
2022/05/23 09:56:40;;;;;;;4.80;3.83;;;25.70;61.20;;;;;;4996297;28;93358;-73
2022/05/23 09:59:18;;;;;;;5.55;3.70;;;25.80;61.40;;;;;;4998140;28;93023;-73
2022/05/23 10:01:46;;;;;;;5.88;5.38;;;25.80;60.40;;;;;;4997663;28;92576;-73
2022/05/23 10:04:15;;;;;;;5.35;4.53;;;25.90;61.60;;;;;;5012685;28;92421;-73
2022/05/23 10:06:50;;;;;;;5.85;4.57;;;26.00;61.00;;;;;;4994407;28;97496;-73
2022/05/23 10:09:33;;;;;;;4.32;3.10;;;26.00;60.60;;;;;;4997269;28;95075;-73
2022/05/23 10:12:21;;;;;;;6.55;3.50;;;26.10;60.40;;;;;;4996944;28;92814;-73
2022/05/23 10:14:51;;;;;;;5.30;4.05;;;26.10;60.40;;;;;;4996314;28;92473;-73
2022/05/23 10:17:36;;;;;;;6.38;3.75;;;26.10;59.20;;;;;;4995816;28;94414;-73
2022/05/23 10:20:27;;;;;;;5.13;3.65;;;26.10;59.00;;;;;;4995853;28;93068;-73
2022/05/23 10:22:56;;;;;;;4.82;3.95;;;26.10;60.40;;;;;;4996243;28;93162;-73
2022/05/23 10:25:25;;;;;;;6.07;5.53;;;26.10;60.30;;;;;;4996642;28;92165;-73
2022/05/23 10:28:00;;;;;;;5.53;3.67;;;26.10;60.00;;;;;;4995584;28;95996;-73
2022/05/23 10:30:32;;;;;;;4.93;3.23;;;26.10;60.30;;;;;;4995490;28;95547;-73
2022/05/23 10:33:09;;;;;;;4.13;2.92;;;26.40;59.90;;;;;;4994569;28;94943;-73
2022/05/23 10:35:51;;;;;;;5.53;4.78;;;26.60;59.50;;;;;;4995959;28;92898;-73
2022/05/23 10:44:41;;;;;;;6.40;3.70;;;27.10;57.60;;;;;;4995477;28;92509;-73
2022/05/23 10:47:39;;;;;;;4.32;3.13;;;27.20;56.20;;;;;;4996866;28;92502;-73
2022/05/23 10:50:26;;;;;;;5.80;5.00;;;27.40;57.10;;;;;;4996750;28;93225;-73
2022/05/23 10:53:25;;;;;;;4.68;3.70;;;27.40;57.90;;;;;;4995378;28;95391;-73
2022/05/23 10:56:15;;;;;;;5.05;4.40;;;27.60;56.60;;;;;;4996219;28;92465;-73
2022/05/23 10:58:52;;;;;;;3.83;2.63;;;27.60;55.10;;;;;;4995203;28;92452;-73
2022/05/23 11:01:47;;;;;;;3.95;3.65;;;27.50;54.90;;;;;;4994264;28;95478;-73
2022/05/23 11:04:23;;;;;;;3.60;2.67;;;27.70;55.60;;;;;;4995165;28;98043;-73
2022/05/23 11:06:59;;;;;;;3.38;2.78;;;27.50;54.80;;;;;;4996616;28;92487;-74
2022/05/23 11:09:31;;;;;;;3.75;3.53;;;27.40;53.70;;;;;;4996580;28;92480;-74
2022/05/23 11:11:58;;;;;;;;;;;27.30;54.20;;;;;;4995196;28;95985;-73
2022/05/23 11:14:32;;;;;;;4.55;3.25;;;27.00;54.70;;;;;;4997674;28;92879;-72
2022/05/23 11:17:28;;;;;;;8.45;4.15;;;27.10;56.00;;;;;;4995285;28;92493;-72
2022/05/23 11:19:55;;;;;;;5.35;3.78;;;27.10;56.20;;;;;;4995211;28;91683;-72
2022/05/23 11:22:32;;;;;;;3.30;3.00;;;26.80;55.70;;;;;;4996120;28;93216;-72
2022/05/23 11:25:27;;;;;;;3.35;3.00;;;26.80;54.70;;;;;;4994586;28;95685;-72
2022/05/23 11:34:28;;;;;;;3.45;2.65;;;26.80;56.40;;;;;;4994593;28;95919;-72
2022/05/23 11:39:51;;;;;;;4.68;4.13;;;27.20;56.50;;;;;;4996232;28;92347;-72
2022/05/23 11:42:50;;;;;;;4.68;3.35;;;27.10;55.80;;;;;;5011206;28;92453;-72
2022/05/23 11:45:57;;;;;;;4.07;3.65;;;27.10;55.90;;;;;;4996071;28;93278;-72
2022/05/23 11:48:46;;;;;;;4.05;3.75;;;27.10;54.90;;;;;;4994862;28;95639;-72
2022/05/23 11:51:23;;;;;;;7.47;4.10;;;27.00;54.50;;;;;;4991596;28;92554;-72
2022/05/23 11:53:59;;;;;;;5.03;3.97;;;27.00;56.30;;;;;;4995953;28;92477;-72
2022/05/23 11:56:37;;;;;;;8.77;4.10;;;27.00;56.30;;;;;;4993350;28;98277;-72
2022/05/23 11:59:08;;;;;;;4.88;3.20;;;26.70;54.60;;;;;;4994371;28;92546;-72
2022/05/23 12:01:35;;;;;;;3.70;3.38;;;26.70;55.60;;;;;;4995813;28;92423;-72
2022/05/23 12:04:02;;;;;;;3.90;3.10;;;26.60;56.20;;;;;;4994213;28;92626;-74
2022/05/23 12:06:29;;;;;;;4.53;3.78;;;26.70;56.50;;;;;;4994499;28;93190;-72
2022/05/23 12:09:11;;;;;;;4.85;4.35;;;26.90;57.40;;;;;;4995440;28;92898;-72
2022/05/23 12:11:42;;;;;;;5.97;3.80;;;27.20;56.90;;;;;;4994764;28;92436;-72
2022/05/23 12:14:12;;;;;;;5.00;2.70;;;27.20;57.30;;;;;;4994370;28;91804;-72
2022/05/23 12:16:57;;;;;;;4.38;3.83;;;27.30;56.30;;;;;;4995521;28;93175;-72
2022/05/23 12:19:39;;;;;;;4.75;4.25;;;27.50;56.10;;;;;;4995446;28;92931;-72
2022/05/23 12:22:24;;;;;;;4.22;3.70;;;27.60;55.60;;;;;;4992793;28;94876;-72
2022/05/23 12:25:09;;;;;;;6.53;3.72;;;27.60;54.80;;;;;;4995672;28;92476;-73
2022/05/23 12:28:06;;;;;;;4.65;4.03;;;27.60;54.90;;;;;;4994022;28;95494;-72
2022/05/23 12:30:41;;;;;;;5.75;3.55;;;27.60;55.40;;;;;;4989052;28;92928;-72
2022/05/23 12:33:22;;;;;;;4.25;3.95;;;27.70;56.20;;;;;;4992001;28;92405;-73
2022/05/23 12:35:59;;;;;;;6.25;3.40;;;27.60;54.70;;;;;;4995260;28;92444;-72
2022/05/23 12:38:53;;;;;;;4.78;3.95;;;27.60;55.80;;;;;;4998204;28;93260;-72
2022/05/23 12:41:46;;;;;;;5.20;3.53;;;27.40;55.00;;;;;;4998900;28;93317;-72
2022/05/23 12:44:40;;;;;;;3.70;3.38;;;27.60;56.10;;;;;;4998459;28;92419;-72
2022/05/23 12:47:25;;;;;;;4.30;4.00;;;27.60;55.30;;;;;;4997613;28;92454;-72
2022/05/23 12:50:29;;;;;;;3.95;3.55;;;27.70;55.10;;;;;;4997412;28;97280;-72
2022/05/23 12:53:18;;;;;;;4.03;2.85;;;27.70;54.80;;;;;;4998303;28;95454;-72
2022/05/23 12:56:03;;;;;;;4.13;2.72;;;27.70;55.10;;;;;;4997651;28;92490;-72
2022/05/23 12:58:49;;;;;;;5.07;4.43;;;27.70;54.70;;;;;;4997549;28;93026;-72
2022/05/23 13:01:25;;;;;;;3.63;2.90;;;27.90;55.10;;;;;;4998474;28;93078;-72
2022/05/23 13:04:16;;;;;;;3.85;3.20;;;28.00;55.00;;;;;;5013190;28;93637;-72
2022/05/23 13:06:52;;;;;;;5.47;4.93;;;28.00;55.10;;;;;;4998791;28;92864;-72
2022/05/23 13:09:38;;;;;;;4.93;3.90;;;28.10;54.70;;;;;;4998918;28;92117;-72
2022/05/23 13:12:09;;;;;;;4.18;2.88;;;28.40;54.80;;;;;;4996494;28;96014;-72
2022/05/23 13:14:50;;;;;;;3.17;2.92;;;28.40;54.30;;;;;;4996694;28;95453;-73
2022/05/23 13:17:38;;;;;;;4.00;2.70;;;28.50;53.60;;;;;;4997059;28;94748;-72
2022/05/23 13:23:16;;;;;;;5.53;3.67;;;28.10;53.10;;;;;;4982511;28;94394;-73
2022/05/23 13:25:45;;;;;;;4.80;2.70;;;28.00;54.30;;;;;;4997800;28;93126;-73
2022/05/23 13:28:15;;;;;;;3.70;2.95;;;28.00;53.50;;;;;;4996601;28;92444;-73
2022/05/23 13:30:48;;;;;;;4.03;3.45;;;28.10;54.20;;;;;;4997898;28;92397;-72
2022/05/23 13:33:20;;;;;;;3.90;2.72;;;28.10;54.00;;;;;;4997412;28;94372;-72
2022/05/23 13:35:55;;;;;;;3.80;3.30;;;28.10;54.50;;;;;;4998655;28;93075;-72
2022/05/23 13:38:31;;;;;;;3.17;2.70;;;28.00;54.60;;;;;;4998154;28;92873;-72
2022/05/23 13:41:02;;;;;;;5.53;4.20;;;27.90;54.60;;;;;;4998225;28;92484;-72
2022/05/23 13:43:45;;;;;;;5.47;4.43;;;27.70;54.80;;;;;;4996673;28;95710;-72
2022/05/23 13:46:25;;;;;;;4.05;3.17;;;27.70;56.00;;;;;;4997602;28;95446;-72
2022/05/23 13:49:42;;;;;;;5.10;3.88;;;27.60;56.50;;;;;;4996734;28;93372;-72
2022/05/23 13:52:19;;;;;;;4.70;2.85;;;27.60;55.10;;;;;;4996439;28;92426;-73
2022/05/23 13:54:58;;;;;;;4.57;2.92;;;27.40;55.70;;;;;;4997348;28;93328;-72
2022/05/23 13:57:34;;;;;;;5.88;3.00;;;27.50;56.20;;;;;;4997635;28;92951;-72
2022/05/23 14:00:13;;;;;;;5.28;4.47;;;27.40;57.30;;;;;;4995970;28;93248;-73
2022/05/23 14:03:00;;;;;;;7.20;4.32;;;27.20;57.80;;;;;;4998103;28;91702;-72
2022/05/23 14:05:30;;;;;;;4.65;4.03;;;27.30;58.00;;;;;;4997504;28;93236;-72
2022/05/23 14:07:58;;;;;;;4.47;4.15;;;27.20;57.60;;;;;;4995986;28;92917;-72
2022/05/23 14:10:29;;;;;;;3.30;3.10;;;27.30;57.10;;;;;;4996216;28;94807;-72
2022/05/23 14:12:58;;;;;;;3.70;2.55;;;27.40;56.50;;;;;;4997511;28;92367;-72
2022/05/23 14:15:28;;;;;;;4.35;3.13;;;27.50;56.20;;;;;;4997046;28;92495;-72
2022/05/23 14:17:58;;;;;;;4.05;3.65;;;27.60;56.40;;;;;;4997162;28;93945;-72
2022/05/23 14:20:25;;;;;;;4.68;2.80;;;27.80;56.00;;;;;;4997625;28;92823;-72
2022/05/23 14:23:04;;;;;;;4.28;3.92;;;27.80;55.70;;;;;;4995953;28;92327;-72
2022/05/23 14:25:37;;;;;;;3.78;3.08;;;28.00;56.00;;;;;;4996594;28;93263;-72
2022/05/23 14:28:23;;;;;;;3.47;3.17;;;28.10;55.30;;;;;;4995996;28;95787;-72
2022/05/23 14:31:02;;;;;;;3.45;2.53;;;28.10;54.70;;;;;;4997309;28;92424;-72
2022/05/23 14:33:42;;;;;;;4.03;2.55;;;28.20;55.20;;;;;;4995836;28;92901;-72
2022/05/23 14:36:24;;;;;;;4.88;2.78;;;28.40;54.50;;;;;;4994497;28;95667;-73
2022/05/23 14:39:00;;;;;;;;;;;28.40;55.10;;;;;;4997526;28;95454;-73